Hlavní strana
METAR-TAF:

METAR-TAF

Letiště :

Örnsköldsvik, Švédsko

zeměpisná šířka: 63-24N, zeměpisná délka: 018-58E, výška: 103 m

Aktuální stav počasí

Zpráva byla vytvořena před 22 minutami, v 21:50 UTC
Západoseverozápadní vítr 22 kt s nárazy do 32 kt
Teplota 5°C
Vlhkost vzduchu 75%
Tlak 1014 hPa
Viditelnost 10 km a více

METAR: ESNO 272150Z AUTO 29022G32KT 9999 FEW230/// 05/01 Q1014

Čas: 23:12 (22:12 UTC)


TAF: chybějící

Stav a předpovědi počasí z více než 4 000 letišť (zprávy METAR a TAF).

Červené a žluté tečky na mapě představují dostupné meteorologické stanice.

Když kurzor umístíte na tečku, zobrazí se název stanice.

Pak kliknutím zobrazíte stav a předpověď počasí.

Chcete-li změnit mapu, kliknutím na zelené tlačítko se znaménkem +mapu přiblížíte, kliknutím na zelené tlačítko se znaménkem – mapu oddálíte a kliknutím na zelené šipky přejdete na sousední mapy.


METAR-TAF: